createdAt,value
2019-02-21T00:01:27.241Z,23.93
2019-02-21T00:03:56.867Z,23.80
2019-02-21T00:06:26.691Z,23.20
2019-02-21T00:08:56.187Z,23.30
2019-02-21T00:11:26.804Z,23.50
2019-02-21T00:13:56.294Z,22.23
2019-02-21T00:16:25.923Z,22.90
2019-02-21T00:18:55.433Z,23.13
2019-02-21T00:21:25.027Z,22.33
2019-02-21T00:23:54.534Z,21.57
2019-02-21T00:26:24.106Z,23.87
2019-02-21T00:28:53.574Z,22.93
2019-02-21T00:31:23.195Z,22.67
2019-02-21T00:33:52.688Z,22.87
2019-02-21T00:36:22.315Z,24.07
2019-02-21T00:38:51.815Z,21.67
2019-02-21T00:41:21.370Z,22.30
2019-02-21T00:43:50.872Z,23.47
2019-02-21T00:46:20.352Z,24.20
2019-02-21T00:48:49.976Z,23.00
2019-02-21T00:51:19.473Z,23.33
2019-02-21T00:53:50.035Z,23.33
2019-02-21T00:56:19.549Z,22.53
2019-02-21T00:58:49.232Z,23.60
2019-02-21T01:01:20.785Z,24.77
2019-02-21T01:03:49.977Z,24.70
2019-02-21T01:06:19.489Z,22.67
2019-02-21T01:08:49.065Z,23.37
2019-02-21T01:11:18.703Z,22.40
2019-02-21T01:13:48.279Z,22.67
2019-02-21T01:16:17.785Z,22.20
2019-02-21T01:18:47.512Z,24.53
2019-02-21T01:21:17.018Z,23.63
2019-02-21T01:23:46.518Z,21.53
2019-02-21T01:26:16.099Z,22.00
2019-02-21T01:28:45.607Z,22.73
2019-02-21T01:31:15.210Z,21.97
2019-02-21T01:33:44.724Z,22.03
2019-02-21T01:36:14.336Z,21.33
2019-02-21T01:38:44.825Z,22.90
2019-02-21T01:41:14.384Z,22.60
2019-02-21T01:43:43.988Z,24.63
2019-02-21T01:46:13.584Z,21.67
2019-02-21T01:48:43.371Z,21.70
2019-02-21T01:51:13.014Z,22.67
2019-02-21T01:53:42.772Z,23.57
2019-02-21T01:56:13.377Z,21.07
2019-02-21T01:58:42.971Z,22.97
2019-02-21T02:01:12.467Z,22.70
2019-02-21T02:03:42.083Z,22.40
2019-02-21T02:06:11.566Z,23.60
2019-02-21T02:08:41.253Z,22.37
2019-02-21T02:11:10.906Z,22.30
2019-02-21T02:13:40.456Z,22.77
2019-02-21T02:16:10.964Z,23.47
2019-02-21T02:18:40.539Z,22.10
2019-02-21T02:21:10.018Z,25.10
2019-02-21T02:23:39.623Z,22.73
2019-02-21T02:26:09.260Z,22.87
2019-02-21T02:28:38.764Z,22.20
2019-02-21T02:31:21.618Z,23.10
2019-02-21T02:33:39.591Z,22.57
2019-02-21T02:36:09.284Z,22.27
2019-02-21T02:38:38.742Z,23.13
2019-02-21T02:41:08.562Z,22.63
2019-02-21T02:43:38.035Z,22.57
2019-02-21T02:46:07.957Z,23.37
2019-02-21T02:48:37.457Z,22.87
2019-02-21T02:51:06.969Z,22.53
2019-02-21T02:53:36.580Z,22.00
2019-02-21T02:56:06.083Z,23.73
2019-02-21T02:58:35.775Z,21.50
2019-02-21T03:01:05.264Z,22.23
2019-02-21T03:03:34.831Z,21.70
2019-02-21T03:06:04.438Z,21.37
2019-02-21T03:08:34.025Z,22.90
2019-02-21T03:11:03.493Z,23.20
2019-02-21T03:13:33.063Z,21.43
2019-02-21T03:16:02.590Z,22.47
2019-02-21T03:18:32.169Z,23.20
2019-02-21T03:21:01.683Z,23.10
2019-02-21T03:23:31.262Z,24.30
2019-02-21T03:26:00.814Z,23.83
2019-02-21T03:28:30.351Z,22.13
2019-02-21T03:30:59.899Z,22.30
2019-02-21T03:33:29.700Z,21.83
2019-02-21T03:35:59.189Z,22.83
2019-02-21T03:38:28.773Z,21.40
2019-02-21T03:40:58.367Z,21.13
2019-02-21T03:43:27.881Z,23.07
2019-02-21T03:45:57.463Z,21.93
2019-02-21T03:48:26.952Z,21.37
2019-02-21T03:50:56.582Z,22.60
2019-02-21T03:53:26.353Z,23.20
2019-02-21T03:55:55.956Z,22.00
2019-02-21T03:58:25.532Z,22.87
2019-02-21T04:00:55.162Z,22.40
2019-02-21T04:03:24.643Z,22.47
2019-02-21T04:05:54.307Z,21.50
2019-02-21T04:08:23.978Z,22.60
2019-02-21T04:10:53.544Z,21.70
2019-02-21T04:13:23.057Z,21.57
2019-02-21T04:15:52.966Z,22.60
2019-02-21T04:18:22.413Z,20.93
2019-02-21T04:20:52.011Z,23.03
2019-02-21T04:23:21.482Z,23.77
2019-02-21T04:25:51.017Z,23.43
2019-02-21T04:28:20.500Z,23.83
2019-02-21T04:30:50.079Z,23.00
2019-02-21T04:33:19.607Z,24.70
2019-02-21T04:35:49.167Z,23.60
2019-02-21T04:38:18.673Z,24.10
2019-02-21T04:40:48.256Z,23.70
2019-02-21T04:43:17.691Z,23.83
2019-02-21T04:45:47.248Z,23.10
2019-02-21T04:48:16.812Z,22.03
2019-02-21T04:50:46.287Z,25.63
2019-02-21T04:53:15.863Z,23.80
2019-02-21T04:55:45.368Z,23.30
2019-02-21T04:58:15.035Z,24.03
2019-02-21T05:00:44.511Z,23.27
2019-02-21T05:03:14.169Z,23.87
2019-02-21T05:05:43.659Z,23.60
2019-02-21T05:08:13.244Z,22.90
2019-02-21T05:10:42.899Z,22.60
2019-02-21T05:13:12.505Z,23.87
2019-02-21T05:15:42.038Z,22.77
2019-02-21T05:18:11.515Z,23.10
2019-02-21T05:20:41.098Z,23.60
2019-02-21T05:23:10.783Z,23.00
2019-02-21T05:25:40.364Z,22.50
2019-02-21T05:28:26.342Z,22.50
2019-02-21T05:30:58.923Z,22.43
2019-02-21T05:33:56.311Z,23.47
2019-02-21T05:36:47.568Z,21.40
2019-02-21T05:39:32.958Z,22.83
2019-02-21T05:42:24.467Z,21.30
2019-02-21T05:45:13.391Z,21.30
2019-02-21T05:48:01.304Z,24.40
2019-02-21T05:50:39.644Z,22.93
2019-02-21T05:53:34.116Z,22.50
2019-02-21T05:56:11.588Z,22.03
2019-02-21T05:58:53.731Z,22.20
2019-02-21T06:01:45.059Z,21.63
2019-02-21T06:04:37.109Z,20.53
2019-02-21T06:07:19.713Z,20.30
2019-02-21T06:09:57.559Z,21.07
2019-02-21T06:12:44.039Z,22.63
2019-02-21T06:15:36.647Z,21.30
2019-02-21T06:18:29.118Z,20.87
2019-02-21T06:21:23.747Z,22.57
2019-02-21T06:24:08.465Z,22.77
2019-02-21T06:27:00.958Z,20.83
2019-02-21T06:29:39.145Z,20.60
2019-02-21T06:32:14.336Z,20.97
2019-02-21T06:34:39.801Z,20.70
2019-02-21T06:37:09.335Z,21.20
2019-02-21T06:39:38.851Z,20.33
2019-02-21T06:42:08.412Z,19.97
2019-02-21T06:44:38.142Z,18.70
2019-02-21T06:47:08.643Z,20.40
2019-02-21T06:49:38.195Z,18.87
2019-02-21T06:52:08.799Z,19.47
2019-02-21T06:54:38.271Z,20.13
2019-02-21T06:57:07.899Z,19.63
2019-02-21T06:59:43.397Z,18.90
2019-02-21T07:02:08.739Z,19.33
2019-02-21T07:04:38.532Z,20.60
2019-02-21T07:07:08.091Z,20.90
2019-02-21T07:09:37.644Z,18.67
2019-02-21T07:12:07.277Z,17.97
2019-02-21T07:14:36.983Z,19.30
2019-02-21T07:17:08.458Z,18.83
2019-02-21T07:19:37.745Z,18.60
2019-02-21T07:22:07.359Z,17.30
2019-02-21T07:24:38.492Z,19.50
2019-02-21T07:27:08.267Z,19.17
2019-02-21T07:29:38.854Z,19.80
2019-02-21T07:32:08.745Z,19.40
2019-02-21T07:34:38.268Z,18.23
2019-02-21T07:37:18.051Z,19.60
2019-02-21T07:39:39.090Z,19.03
2019-02-21T07:42:08.687Z,18.43
2019-02-21T07:44:38.246Z,19.37
2019-02-21T07:47:07.857Z,18.97
2019-02-21T07:49:37.390Z,19.00
2019-02-21T07:52:06.961Z,18.20
2019-02-21T07:54:36.845Z,20.73
2019-02-21T07:57:08.489Z,18.97
2019-02-21T07:59:37.790Z,17.57
2019-02-21T08:02:07.576Z,19.43
2019-02-21T08:04:37.206Z,19.37
2019-02-21T08:07:06.764Z,18.90
2019-02-21T08:09:36.301Z,18.53
2019-02-21T08:12:05.940Z,19.63
2019-02-21T08:14:35.497Z,18.23
2019-02-21T08:17:05.023Z,18.07
2019-02-21T08:19:35.711Z,19.70
2019-02-21T08:22:05.253Z,20.40
2019-02-21T08:24:34.951Z,17.97
2019-02-21T08:27:04.494Z,20.17
2019-02-21T08:29:35.278Z,23.43
2019-02-21T08:32:04.881Z,21.53
2019-02-21T08:34:38.683Z,22.60
2019-02-21T08:37:08.861Z,21.90
2019-02-21T08:39:38.404Z,21.90
2019-02-21T08:42:07.920Z,21.40
2019-02-21T08:44:37.533Z,22.60
2019-02-21T08:47:07.018Z,22.23
2019-02-21T08:49:37.598Z,22.23
2019-02-21T08:52:07.141Z,21.50
2019-02-21T08:54:36.755Z,21.30
2019-02-21T08:57:06.247Z,22.23
2019-02-21T08:59:35.812Z,23.80
2019-02-21T09:02:05.739Z,21.07
2019-02-21T09:04:35.217Z,22.77
2019-02-21T09:07:04.835Z,21.57
2019-02-21T09:09:34.427Z,24.30
2019-02-21T09:12:05.656Z,20.40
2019-02-21T09:14:35.620Z,22.40
2019-02-21T09:17:05.234Z,22.80
2019-02-21T09:19:36.729Z,24.30
2019-02-21T09:22:05.980Z,20.90
2019-02-21T09:24:41.276Z,22.33
2019-02-21T09:27:06.749Z,21.93
2019-02-21T09:29:36.214Z,20.37
2019-02-21T09:32:06.916Z,21.37
2019-02-21T09:34:36.587Z,19.97
2019-02-21T09:37:06.309Z,20.57
2019-02-21T09:39:35.805Z,21.03
2019-02-21T09:42:05.496Z,20.47
2019-02-21T09:44:35.928Z,19.30
2019-02-21T09:47:05.621Z,19.90
2019-02-21T09:49:35.120Z,20.00
2019-02-21T09:52:04.717Z,19.50
2019-02-21T09:54:34.523Z,20.43
2019-02-21T09:57:12.780Z,18.70
2019-02-21T09:59:35.317Z,20.90
2019-02-21T10:02:04.871Z,18.20
2019-02-21T10:04:34.382Z,19.70
2019-02-21T10:07:03.946Z,16.50
2019-02-21T10:09:33.460Z,17.47
2019-02-21T10:12:03.023Z,15.60
2019-02-21T10:14:33.558Z,16.73
2019-02-21T10:17:03.155Z,17.40
2019-02-21T10:19:32.704Z,15.53
2019-02-21T10:22:04.425Z,16.63
2019-02-21T10:24:33.447Z,15.90
2019-02-21T10:27:03.021Z,17.00
2019-02-21T10:29:32.691Z,16.30
2019-02-21T10:32:02.256Z,16.73
2019-02-21T10:34:42.284Z,15.73
2019-02-21T10:37:02.981Z,14.20
2019-02-21T10:39:32.549Z,13.80
2019-02-21T10:42:02.427Z,13.60
2019-02-21T10:44:31.923Z,15.50
2019-02-21T10:47:01.443Z,15.10
2019-02-21T10:49:31.056Z,15.57
2019-02-21T10:52:00.535Z,16.00
2019-02-21T10:54:30.129Z,14.53
2019-02-21T10:56:59.604Z,14.20
2019-02-21T10:59:29.303Z,14.77
2019-02-21T11:01:58.802Z,14.40
2019-02-21T11:04:28.375Z,13.77
2019-02-21T11:06:57.853Z,15.40
2019-02-21T11:09:27.489Z,16.40
2019-02-21T11:11:57.089Z,16.13
2019-02-21T11:14:26.783Z,17.10
2019-02-21T11:16:56.311Z,27.93
2019-02-21T11:19:25.915Z,18.03
2019-02-21T11:21:55.465Z,16.97
2019-02-21T11:24:25.067Z,17.67
2019-02-21T11:26:54.573Z,16.80
2019-02-21T11:29:24.202Z,17.80
2019-02-21T11:31:53.673Z,17.93
2019-02-21T11:34:23.155Z,16.27
2019-02-21T11:36:52.770Z,19.17
2019-02-21T11:39:23.353Z,17.50
2019-02-21T11:41:52.983Z,16.57
2019-02-21T11:44:22.458Z,17.17
2019-02-21T11:46:52.031Z,16.40
2019-02-21T11:49:21.543Z,15.27
2019-02-21T11:51:51.135Z,16.50
2019-02-21T11:54:26.704Z,16.00
2019-02-21T11:56:51.851Z,16.33
2019-02-21T11:59:21.460Z,16.90
2019-02-21T12:01:51.060Z,17.63
2019-02-21T12:04:20.543Z,16.57
2019-02-21T12:06:50.129Z,17.57
2019-02-21T12:09:19.608Z,19.97
2019-02-21T12:11:49.186Z,20.23
2019-02-21T12:14:19.664Z,17.63
2019-02-21T12:16:49.406Z,18.97
2019-02-21T12:19:18.860Z,20.53
2019-02-21T12:21:58.599Z,17.90
2019-02-21T12:24:19.610Z,18.03
2019-02-21T12:26:49.217Z,17.33
2019-02-21T12:29:18.751Z,19.00
2019-02-21T12:31:48.350Z,17.90
2019-02-21T12:34:17.884Z,17.83
2019-02-21T12:36:47.459Z,17.53
2019-02-21T12:39:16.960Z,20.47
2019-02-21T12:41:46.522Z,18.40
2019-02-21T12:44:16.012Z,20.27
2019-02-21T12:46:45.807Z,19.47
2019-02-21T12:49:15.485Z,19.30
2019-02-21T12:51:44.982Z,21.00
2019-02-21T12:54:14.575Z,19.97
2019-02-21T12:56:44.087Z,19.70
2019-02-21T12:59:13.736Z,19.40
2019-02-21T13:01:43.259Z,18.70
2019-02-21T13:04:12.878Z,18.17
2019-02-21T13:06:42.379Z,19.83
2019-02-21T13:09:13.960Z,18.27
2019-02-21T13:11:43.467Z,19.37
2019-02-21T13:14:13.054Z,20.10
2019-02-21T13:16:42.554Z,18.70
2019-02-21T13:19:12.457Z,18.83
2019-02-21T13:21:42.920Z,20.33
2019-02-21T13:24:12.496Z,18.83
2019-02-21T13:26:42.002Z,18.60
2019-02-21T13:29:11.571Z,20.90
2019-02-21T13:31:41.086Z,19.17
2019-02-21T13:34:10.581Z,19.30
2019-02-21T13:36:40.161Z,20.10
2019-02-21T13:39:09.727Z,22.90
2019-02-21T13:41:39.316Z,23.30
2019-02-21T13:44:08.831Z,20.03
2019-02-21T13:46:41.057Z,21.97
2019-02-21T13:49:09.616Z,22.63
2019-02-21T13:51:39.266Z,19.97
2019-02-21T13:54:08.803Z,22.07
2019-02-21T13:56:41.429Z,20.73
2019-02-21T13:59:11.039Z,21.90
2019-02-21T14:01:40.655Z,21.60
2019-02-21T14:04:10.160Z,21.87
2019-02-21T14:06:39.769Z,19.23
2019-02-21T14:09:09.550Z,19.90
2019-02-21T14:11:39.197Z,20.90
2019-02-21T14:14:08.722Z,16.13
2019-02-21T14:16:46.245Z,16.60
2019-02-21T14:19:09.468Z,16.00
2019-02-21T14:21:38.990Z,15.97
2019-02-21T14:24:08.517Z,15.13
2019-02-21T14:26:38.135Z,14.20
2019-02-21T14:29:07.650Z,14.63
2019-02-21T14:31:37.460Z,12.77
2019-02-21T14:34:06.936Z,12.43
2019-02-21T14:36:39.337Z,13.00
2019-02-21T14:39:10.630Z,13.33
2019-02-21T14:41:40.340Z,12.90
2019-02-21T14:44:09.876Z,14.33
2019-02-21T14:46:39.480Z,12.77
2019-02-21T14:49:09.049Z,12.03
2019-02-21T14:51:38.631Z,12.77
2019-02-21T14:54:08.152Z,12.70
2019-02-21T14:56:37.785Z,12.33
2019-02-21T14:59:07.728Z,11.77
2019-02-21T15:01:38.365Z,11.73
2019-02-21T15:04:08.841Z,11.00
2019-02-21T15:06:38.369Z,11.50
2019-02-21T15:09:08.193Z,11.33
2019-02-21T15:11:37.707Z,9.90
2019-02-21T15:14:07.316Z,10.40
2019-02-21T15:16:36.791Z,10.20
2019-02-21T15:19:06.450Z,9.50
2019-02-21T15:21:35.917Z,10.23
2019-02-21T15:24:05.642Z,9.97
2019-02-21T15:26:35.229Z,9.97
2019-02-21T15:29:04.928Z,12.27
2019-02-21T15:31:34.447Z,10.63
2019-02-21T15:34:04.053Z,11.90
2019-02-21T15:36:38.167Z,11.67
2019-02-21T15:39:06.339Z,11.37
2019-02-21T15:41:35.959Z,13.50
2019-02-21T15:44:05.599Z,12.00
2019-02-21T15:46:35.115Z,10.93
2019-02-21T15:49:04.780Z,11.97
2019-02-21T15:51:34.331Z,11.30
2019-02-21T15:54:03.898Z,11.47
2019-02-21T15:56:33.407Z,11.13
2019-02-21T15:59:03.218Z,9.80
2019-02-21T16:01:32.757Z,11.30
2019-02-21T16:04:02.356Z,10.83
2019-02-21T16:06:31.863Z,11.07
2019-02-21T16:09:01.477Z,10.43
2019-02-21T16:11:30.945Z,11.40
2019-02-21T16:14:03.471Z,11.53
2019-02-21T16:16:31.701Z,10.13
2019-02-21T16:19:01.335Z,9.93
2019-02-21T16:21:30.891Z,11.40
2019-02-21T16:24:00.468Z,12.73
2019-02-21T16:26:30.997Z,10.40
2019-02-21T16:29:00.647Z,11.40
2019-02-21T16:31:30.171Z,11.93
2019-02-21T16:33:59.780Z,11.03
2019-02-21T16:36:29.307Z,10.53
2019-02-21T16:38:58.865Z,13.17
2019-02-21T16:41:35.995Z,12.33
2019-02-21T16:43:59.613Z,12.40
2019-02-21T16:46:29.243Z,11.37
2019-02-21T16:48:59.808Z,11.80
2019-02-21T16:51:29.414Z,12.33
2019-02-21T16:53:58.955Z,12.97
2019-02-21T16:56:28.543Z,14.03
2019-02-21T16:58:58.251Z,12.03
2019-02-21T17:01:29.899Z,12.27
2019-02-21T17:03:59.087Z,12.97
2019-02-21T17:06:28.702Z,13.43
2019-02-21T17:08:59.536Z,14.33
2019-02-21T17:11:29.156Z,11.90
2019-02-21T17:13:58.629Z,12.50
2019-02-21T17:16:28.325Z,14.77
2019-02-21T17:18:57.846Z,13.33
2019-02-21T17:21:27.522Z,12.27
2019-02-21T17:23:57.047Z,13.27
2019-02-21T17:26:26.793Z,15.70
2019-02-21T17:28:56.283Z,15.27
2019-02-21T17:31:26.002Z,14.70
2019-02-21T17:33:55.531Z,13.80
2019-02-21T17:36:25.151Z,12.47
2019-02-21T17:38:54.643Z,15.10
2019-02-21T17:41:24.320Z,14.70
2019-02-21T17:43:53.823Z,15.80
2019-02-21T17:46:24.469Z,14.50
2019-02-21T17:48:54.958Z,16.10
2019-02-21T17:51:24.510Z,16.37
2019-02-21T17:53:54.101Z,15.60
2019-02-21T17:56:23.589Z,14.00
2019-02-21T17:58:53.450Z,16.77
2019-02-21T18:01:23.290Z,16.17
2019-02-21T18:03:52.979Z,17.23
2019-02-21T18:06:22.880Z,15.80
2019-02-21T18:08:54.901Z,16.37
2019-02-21T18:11:23.605Z,16.10
2019-02-21T18:13:53.520Z,16.47
2019-02-21T18:16:23.107Z,17.33
2019-02-21T18:18:52.775Z,16.90
2019-02-21T18:21:22.263Z,16.30
2019-02-21T18:23:51.861Z,17.73
2019-02-21T18:26:21.480Z,16.57
2019-02-21T18:28:51.114Z,17.57
2019-02-21T18:31:20.651Z,17.37
2019-02-21T18:33:50.364Z,16.23
2019-02-21T18:36:20.849Z,17.90
2019-02-21T18:38:50.695Z,17.33
2019-02-21T18:41:20.370Z,18.97
2019-02-21T18:43:50.002Z,17.80
2019-02-21T18:46:19.533Z,18.47
2019-02-21T18:48:49.178Z,19.73
2019-02-21T18:51:19.017Z,19.30
2019-02-21T18:53:48.616Z,19.80
2019-02-21T18:56:18.116Z,20.13
2019-02-21T18:58:47.849Z,21.27
2019-02-21T19:01:17.431Z,21.50
2019-02-21T19:03:47.463Z,22.00
2019-02-21T19:06:17.020Z,22.03
2019-02-21T19:08:46.668Z,22.67
2019-02-21T19:11:16.482Z,22.70
2019-02-21T19:13:46.080Z,23.37
2019-02-21T19:16:16.696Z,23.70
2019-02-21T19:18:46.407Z,23.87
2019-02-21T19:21:15.993Z,23.23
2019-02-21T19:23:45.968Z,24.97
2019-02-21T19:26:16.034Z,23.63
2019-02-21T19:28:45.640Z,25.13
2019-02-21T19:31:17.849Z,25.87
2019-02-21T19:33:47.650Z,24.03
2019-02-21T19:36:17.161Z,24.33
2019-02-21T19:38:47.011Z,24.40
2019-02-21T19:41:16.572Z,26.47
2019-02-21T19:43:46.065Z,27.03
2019-02-21T19:46:15.861Z,26.40
2019-02-21T19:48:45.387Z,26.67
2019-02-21T19:51:15.580Z,27.10
2019-02-21T19:53:45.218Z,26.00
2019-02-21T19:56:15.537Z,25.97
2019-02-21T19:58:45.162Z,25.70
2019-02-21T20:01:15.348Z,27.77
2019-02-21T20:03:44.823Z,27.63
2019-02-21T20:06:14.849Z,23.80
2019-02-21T20:08:44.465Z,25.10
2019-02-21T20:11:14.341Z,26.57
2019-02-21T20:13:43.972Z,27.47
2019-02-21T20:16:13.895Z,26.13
2019-02-21T20:18:43.395Z,24.30
2019-02-21T20:21:13.166Z,23.13
2019-02-21T20:23:42.781Z,26.03
2019-02-21T20:26:18.284Z,26.37
2019-02-21T20:28:43.681Z,26.00
2019-02-21T20:31:13.364Z,25.73
2019-02-21T20:33:43.005Z,26.30
2019-02-21T20:36:12.737Z,26.67
2019-02-21T20:38:42.300Z,25.57
2019-02-21T20:41:11.923Z,25.53
2019-02-21T20:43:41.439Z,27.30
2019-02-21T20:46:11.066Z,27.00
2019-02-21T20:48:40.625Z,28.23
2019-02-21T20:51:10.329Z,29.80
2019-02-21T20:53:39.958Z,27.77
2019-02-21T20:56:09.719Z,29.50
2019-02-21T20:58:39.370Z,27.90
2019-02-21T21:01:12.352Z,26.70
2019-02-21T21:03:40.993Z,28.20
2019-02-21T21:06:10.908Z,27.30
2019-02-21T21:08:43.260Z,28.20
2019-02-21T21:11:11.929Z,25.57
2019-02-21T21:13:43.901Z,27.10
2019-02-21T21:16:12.691Z,28.23
2019-02-21T21:18:42.195Z,28.10
2019-02-21T21:21:11.805Z,28.40
2019-02-21T21:23:41.316Z,29.67
2019-02-21T21:26:10.923Z,28.27
2019-02-21T21:28:40.453Z,28.00
2019-02-21T21:31:10.479Z,30.00
2019-02-21T21:33:40.071Z,29.27
2019-02-21T21:36:09.722Z,28.63
2019-02-21T21:38:39.337Z,28.13
2019-02-21T21:41:08.935Z,27.40
2019-02-21T21:43:38.468Z,28.63
2019-02-21T21:46:08.039Z,27.73
2019-02-21T21:48:37.600Z,28.20
2019-02-21T21:51:07.342Z,27.53
2019-02-21T21:53:36.791Z,27.33
2019-02-21T21:56:06.555Z,26.73
2019-02-21T21:58:36.091Z,27.57
2019-02-21T22:01:05.825Z,26.40
2019-02-21T22:03:35.481Z,26.33
2019-02-21T22:06:04.997Z,25.37
2019-02-21T22:08:34.671Z,26.13
2019-02-21T22:11:04.252Z,24.30
2019-02-21T22:13:33.905Z,26.60
2019-02-21T22:16:03.411Z,25.03
2019-02-21T22:18:33.024Z,24.70
2019-02-21T22:21:05.558Z,24.73
2019-02-21T22:23:35.201Z,24.77
2019-02-21T22:26:04.689Z,23.73
2019-02-21T22:28:34.271Z,24.23
2019-02-21T22:31:03.764Z,24.80
2019-02-21T22:33:33.417Z,24.00
2019-02-21T22:36:02.951Z,23.30
2019-02-21T23:07:44.707Z,25.00
2019-02-21T23:10:14.650Z,25.33
2019-02-21T23:12:44.154Z,25.07
2019-02-21T23:15:14.144Z,24.27
2019-02-21T23:17:43.649Z,24.23
2019-02-21T23:30:32.845Z,23.83
2019-02-21T23:33:02.855Z,22.50
2019-02-21T23:35:32.306Z,24.00
2019-02-21T23:38:01.911Z,24.60
2019-02-21T23:40:31.375Z,22.50
2019-02-21T23:43:01.215Z,22.33
2019-02-21T23:45:30.691Z,21.43
2019-02-21T23:48:00.316Z,21.63
2019-02-21T23:50:29.795Z,20.83
2019-02-21T23:52:59.385Z,21.90
2019-02-21T23:55:30.175Z,22.27
2019-02-21T23:57:59.800Z,21.73
